Time;durP1;ratioP1;P1;durP2;ratioP2;P2;SDS_P1;SDS_P2;PMS_P1;PMS_P2;Temp;Humidity;BMP_temperature;BMP_pressure;BME280_temperature;BME280_humidity;BME280_pressure;Samples;Min_cycle;Max_cycle;Signal;HPM_P1;HPM_P2
2022/11/26 00:00:42;;;;;;;0.10;0.10;;;5.50;99.90;;;;;;5065982;28;20616;-79
2022/11/26 00:03:09;;;;;;;0.10;0.10;;;5.60;99.90;;;;;;5067254;28;20272;-79
2022/11/26 00:05:35;;;;;;;0.10;0.10;;;5.70;99.90;;;;;;5065801;28;20522;-79
2022/11/26 00:08:03;;;;;;;0.10;0.10;;;5.70;99.90;;;;;;5065465;28;20671;-79
2022/11/26 00:10:33;;;;;;;0.10;0.10;;;5.60;99.90;;;;;;5065690;28;20174;-79
2022/11/26 00:12:58;;;;;;;0.10;0.10;;;5.60;99.90;;;;;;5081481;28;20197;-80
2022/11/26 00:15:25;;;;;;;0.10;0.10;;;5.70;99.90;;;;;;5063859;28;20204;-79
2022/11/26 00:17:52;;;;;;;0.10;0.10;;;5.70;99.90;;;;;;5065495;28;20184;-79
2022/11/26 00:20:20;;;;;;;0.07;0.07;;;5.80;99.90;;;;;;5065934;28;20738;-79
2022/11/26 00:22:49;;;;;;;0.00;0.00;;;5.90;99.90;;;;;;5065866;28;20185;-80
2022/11/26 00:25:27;;;;;;;0.10;0.10;;;6.00;99.90;;;;;;5064530;28;20746;-79
2022/11/26 00:27:54;;;;;;;0.10;0.10;;;6.00;99.90;;;;;;5066354;28;20215;-79
2022/11/26 00:30:25;;;;;;;0.10;0.10;;;6.00;99.90;;;;;;5065030;28;20248;-79
2022/11/26 00:32:52;;;;;;;0.10;0.10;;;6.10;99.90;;;;;;5066137;28;20205;-79
2022/11/26 00:35:19;;;;;;;0.10;0.10;;;5.90;99.90;;;;;;5082192;28;20730;-79
2022/11/26 00:37:44;;;;;;;0.10;0.10;;;5.80;99.90;;;;;;5066936;28;20196;-79
2022/11/26 00:40:26;;;;;;;0.10;0.10;;;5.70;99.90;;;;;;5065997;28;20188;-79
2022/11/26 00:42:53;;;;;;;0.10;0.10;;;5.50;99.90;;;;;;5067438;28;20192;-79
2022/11/26 00:45:25;;;;;;;0.10;0.10;;;5.50;99.90;;;;;;5064920;28;20216;-80
2022/11/26 00:47:51;;;;;;;0.03;0.03;;;5.50;99.90;;;;;;5063799;28;20201;-80
2022/11/26 00:50:22;;;;;;;0.10;0.10;;;5.60;99.90;;;;;;5064779;28;20649;-79
2022/11/26 00:52:51;;;;;;;0.00;0.00;;;5.70;99.90;;;;;;5066256;28;20177;-79
2022/11/26 00:55:26;;;;;;;0.10;0.10;;;5.70;99.90;;;;;;5081455;28;20201;-80
2022/11/26 00:57:52;;;;;;;0.10;0.10;;;5.70;99.90;;;;;;5067156;28;20223;-79
2022/11/26 01:00:21;;;;;;;0.10;0.10;;;5.70;99.90;;;;;;5064862;28;20221;-79
2022/11/26 01:02:47;;;;;;;0.03;0.03;;;5.70;99.90;;;;;;5067122;28;20186;-80
2022/11/26 01:05:13;;;;;;;0.10;0.10;;;5.70;99.90;;;;;;5064495;28;20568;-80
2022/11/26 01:07:39;;;;;;;0.10;0.10;;;5.70;99.90;;;;;;5064986;28;20216;-80
2022/11/26 01:10:13;;;;;;;0.10;0.10;;;5.70;99.90;;;;;;5064311;28;20189;-79
2022/11/26 01:12:38;;;;;;;0.00;0.00;;;5.80;99.90;;;;;;5066350;28;20268;-79
2022/11/26 01:15:04;;;;;;;0.10;0.10;;;5.70;99.90;;;;;;5064025;28;20307;-79
2022/11/26 01:17:30;;;;;;;0.10;0.10;;;5.80;99.90;;;;;;5064304;28;20626;-79
2022/11/26 01:19:55;;;;;;;0.10;0.10;;;5.60;99.90;;;;;;5063732;28;20192;-79
2022/11/26 01:22:22;;;;;;;0.10;0.10;;;5.60;99.90;;;;;;5063400;28;20203;-79
2022/11/26 01:24:48;;;;;;;0.10;0.10;;;5.60;99.90;;;;;;5063096;28;20237;-80
2022/11/26 01:27:18;;;;;;;0.10;0.10;;;5.50;99.90;;;;;;5063281;28;20218;-80
2022/11/26 01:29:44;;;;;;;0.10;0.10;;;5.30;99.90;;;;;;5065479;28;20216;-80
2022/11/26 01:32:10;;;;;;;0.10;0.10;;;5.40;99.90;;;;;;5063359;28;20240;-80
2022/11/26 01:34:36;;;;;;;0.10;0.10;;;5.40;99.90;;;;;;5064964;28;20717;-79
2022/11/26 01:37:01;;;;;;;0.10;0.10;;;5.30;99.90;;;;;;5062594;28;20223;-79
2022/11/26 01:39:27;;;;;;;0.10;0.10;;;5.40;99.90;;;;;;5062590;28;20228;-80
2022/11/26 01:42:04;;;;;;;0.10;0.10;;;5.40;99.90;;;;;;5064066;28;20220;-79
2022/11/26 01:44:32;;;;;;;0.10;0.10;;;5.30;99.90;;;;;;5064055;28;20219;-80
2022/11/26 01:46:59;;;;;;;0.10;0.10;;;5.30;99.90;;;;;;5064016;28;20735;-79
2022/11/26 01:49:26;;;;;;;0.07;0.07;;;5.20;99.90;;;;;;5082399;28;20595;-79
2022/11/26 01:52:11;;;;;;;0.07;0.07;;;5.00;99.90;;;;;;5062441;28;20791;-79
2022/11/26 01:54:41;;;;;;;0.10;0.10;;;4.80;99.90;;;;;;5063025;28;20197;-79
2022/11/26 01:57:13;;;;;;;0.10;0.10;;;4.80;99.90;;;;;;5065101;28;20231;-79
2022/11/26 01:59:42;;;;;;;0.10;0.10;;;4.90;99.90;;;;;;5062874;28;20256;-79
2022/11/26 02:02:07;;;;;;;0.10;0.10;;;5.00;99.90;;;;;;5062565;28;20589;-79
2022/11/26 02:04:40;;;;;;;0.10;0.10;;;5.10;99.90;;;;;;5062439;28;20209;-79
2022/11/26 02:07:06;;;;;;;0.10;0.10;;;5.20;99.90;;;;;;5061459;28;20186;-79
2022/11/26 02:09:32;;;;;;;0.00;0.00;;;5.20;99.90;;;;;;5063347;28;20187;-79
2022/11/26 02:11:57;;;;;;;0.10;0.10;;;5.10;99.90;;;;;;5064408;28;20204;-79
2022/11/26 02:14:27;;;;;;;0.10;0.10;;;5.10;99.90;;;;;;5063617;28;20208;-79
2022/11/26 02:16:55;;;;;;;0.10;0.10;;;5.10;99.90;;;;;;5063767;28;20192;-79
2022/11/26 02:19:33;;;;;;;0.00;0.00;;;5.10;99.90;;;;;;5063012;28;20195;-79
2022/11/26 02:22:06;;;;;;;0.10;0.10;;;5.00;99.90;;;;;;5062358;28;20191;-79
2022/11/26 02:24:54;;;;;;;0.10;0.10;;;5.00;99.90;;;;;;5064170;28;20227;-79
2022/11/26 02:27:26;;;;;;;0.07;0.07;;;4.90;99.90;;;;;;5062466;28;20212;-79
2022/11/26 02:30:06;;;;;;;0.00;0.00;;;4.90;99.90;;;;;;5062078;28;20181;-79
2022/11/26 02:32:38;;;;;;;0.10;0.10;;;4.90;99.90;;;;;;5063809;28;20605;-79
2022/11/26 02:35:23;;;;;;;0.10;0.10;;;5.00;99.90;;;;;;5062628;28;20249;-79
2022/11/26 02:37:56;;;;;;;0.00;0.00;;;4.90;99.90;;;;;;5064677;28;20186;-79
2022/11/26 02:40:23;;;;;;;0.10;0.10;;;4.80;99.90;;;;;;5063927;28;20185;-79
2022/11/26 02:42:48;;;;;;;0.03;0.03;;;5.00;99.90;;;;;;5064775;28;20184;-79
2022/11/26 02:45:19;;;;;;;0.10;0.10;;;4.90;99.90;;;;;;5062959;28;20216;-79
2022/11/26 02:47:48;;;;;;;0.10;0.10;;;5.00;99.90;;;;;;5061794;28;20217;-79
2022/11/26 02:50:29;;;;;;;0.10;0.10;;;5.00;99.90;;;;;;5078529;28;20827;-79
2022/11/26 02:52:57;;;;;;;0.10;0.10;;;5.00;99.90;;;;;;5062383;28;20181;-79
2022/11/26 02:55:28;;;;;;;0.10;0.10;;;5.00;99.90;;;;;;5062466;28;20201;-79
2022/11/26 02:57:55;;;;;;;0.00;0.00;;;4.90;99.90;;;;;;5063320;28;20185;-79
2022/11/26 03:00:21;;;;;;;0.10;0.10;;;4.90;99.90;;;;;;5061412;28;20208;-79
2022/11/26 03:03:09;;;;;;;0.10;0.10;;;4.90;99.90;;;;;;5062368;28;20189;-80
2022/11/26 03:05:37;;;;;;;0.10;0.10;;;5.00;99.90;;;;;;5082986;28;20243;-79
2022/11/26 03:08:05;;;;;;;0.10;0.10;;;5.20;99.90;;;;;;5065328;28;20247;-79
2022/11/26 03:10:31;;;;;;;0.10;0.10;;;5.40;99.90;;;;;;5066464;28;20739;-79
2022/11/26 03:12:57;;;;;;;0.10;0.10;;;5.50;99.90;;;;;;5067226;28;20226;-79
2022/11/26 03:15:23;;;;;;;0.10;0.10;;;5.60;99.90;;;;;;5065545;28;20234;-78
2022/11/26 03:17:49;;;;;;;0.10;0.10;;;5.60;99.90;;;;;;5065647;28;20246;-79
2022/11/26 03:20:15;;;;;;;0.10;0.10;;;5.70;99.90;;;;;;5065179;28;20200;-79
2022/11/26 03:22:40;;;;;;;0.00;0.00;;;5.80;99.90;;;;;;5065311;28;20724;-78
2022/11/26 03:25:07;;;;;;;0.10;0.10;;;5.80;99.90;;;;;;5065691;28;20318;-79
2022/11/26 03:27:32;;;;;;;0.10;0.10;;;5.80;99.90;;;;;;5064547;28;20286;-80
2022/11/26 03:29:58;;;;;;;0.10;0.10;;;5.80;99.90;;;;;;5065479;28;20324;-79
2022/11/26 03:32:24;;;;;;;0.07;0.07;;;5.80;99.90;;;;;;5065396;28;20730;-79
2022/11/26 03:34:49;;;;;;;0.00;0.00;;;5.70;99.90;;;;;;5065585;28;20197;-79
2022/11/26 03:37:15;;;;;;;0.10;0.10;;;5.60;99.90;;;;;;5065100;28;20273;-79
2022/11/26 03:39:41;;;;;;;0.10;0.10;;;5.40;99.90;;;;;;5066481;28;20196;-79
2022/11/26 03:42:06;;;;;;;0.10;0.10;;;5.20;99.90;;;;;;5065277;28;20186;-79
2022/11/26 03:44:32;;;;;;;0.10;0.10;;;4.90;99.90;;;;;;5065526;28;20205;-79
2022/11/26 03:46:57;;;;;;;0.00;0.00;;;4.40;99.90;;;;;;5066698;28;20204;-79
2022/11/26 03:49:23;;;;;;;0.10;0.10;;;4.30;99.90;;;;;;5066324;28;20672;-78
2022/11/26 03:51:49;;;;;;;0.10;0.10;;;4.30;99.90;;;;;;5065199;28;20184;-79
2022/11/26 03:54:14;;;;;;;0.10;0.10;;;4.30;99.90;;;;;;5065209;28;20732;-79
2022/11/26 03:56:40;;;;;;;0.10;0.10;;;4.50;99.90;;;;;;5065290;28;20203;-79
2022/11/26 03:59:05;;;;;;;0.00;0.00;;;4.70;99.90;;;;;;5066704;28;20197;-79
2022/11/26 04:01:31;;;;;;;0.00;0.00;;;4.90;99.90;;;;;;5065017;28;20197;-79
2022/11/26 04:03:56;;;;;;;0.10;0.10;;;4.90;99.90;;;;;;5065847;28;20272;-79
2022/11/26 04:06:22;;;;;;;0.00;0.00;;;5.00;99.90;;;;;;5064635;28;20374;-79
2022/11/26 04:08:47;;;;;;;0.07;0.07;;;5.00;99.90;;;;;;5063981;28;20236;-79
2022/11/26 04:11:13;;;;;;;0.10;0.10;;;5.00;99.90;;;;;;5080973;28;20180;-79
2022/11/26 04:13:39;;;;;;;0.10;0.10;;;5.10;99.90;;;;;;5079811;28;20303;-79
2022/11/26 04:16:04;;;;;;;0.10;0.10;;;5.00;99.90;;;;;;5081926;28;20185;-80
2022/11/26 04:18:30;;;;;;;0.00;0.00;;;5.00;99.90;;;;;;5082714;28;20850;-79
2022/11/26 04:20:56;;;;;;;0.10;0.10;;;4.90;99.90;;;;;;5080318;28;20193;-79
2022/11/26 04:23:21;;;;;;;0.00;0.00;;;4.90;99.90;;;;;;5072352;28;20189;-79
2022/11/26 04:25:47;;;;;;;0.10;0.10;;;4.70;99.90;;;;;;5070803;28;20218;-79
2022/11/26 04:28:13;;;;;;;0.10;0.10;;;4.50;99.90;;;;;;5068149;28;20227;-78
2022/11/26 04:30:39;;;;;;;0.10;0.10;;;4.40;99.90;;;;;;5070445;28;20198;-80
2022/11/26 04:33:05;;;;;;;0.10;0.10;;;4.40;99.90;;;;;;5066727;28;20276;-78
2022/11/26 04:35:30;;;;;;;0.10;0.10;;;4.40;99.90;;;;;;5066016;28;20189;-78
2022/11/26 04:37:56;;;;;;;0.10;0.10;;;4.50;99.90;;;;;;5068207;28;20570;-79
2022/11/26 04:40:21;;;;;;;0.03;0.03;;;4.40;99.90;;;;;;5067975;28;20655;-79
2022/11/26 04:42:47;;;;;;;0.10;0.10;;;4.40;99.90;;;;;;5062591;28;20192;-79
2022/11/26 04:45:12;;;;;;;0.10;0.10;;;4.30;99.90;;;;;;5063755;28;20209;-79
2022/11/26 04:47:38;;;;;;;0.10;0.10;;;4.20;99.90;;;;;;5063193;28;20216;-79
2022/11/26 04:50:05;;;;;;;0.10;0.10;;;4.20;99.90;;;;;;5067475;28;20263;-79
2022/11/26 04:52:30;;;;;;;0.10;0.10;;;4.20;99.90;;;;;;5066213;28;20710;-79
2022/11/26 04:54:56;;;;;;;0.10;0.10;;;4.30;99.90;;;;;;5065335;28;20220;-79
2022/11/26 04:57:21;;;;;;;0.10;0.10;;;4.40;99.90;;;;;;5065948;28;20237;-79
2022/11/26 04:59:47;;;;;;;0.00;0.00;;;4.40;99.90;;;;;;5064816;28;20266;-79
2022/11/26 05:02:12;;;;;;;0.10;0.10;;;4.40;99.90;;;;;;5063047;28;20248;-79
2022/11/26 05:04:38;;;;;;;0.10;0.10;;;4.30;99.90;;;;;;5065851;28;20209;-79
2022/11/26 05:07:03;;;;;;;0.10;0.10;;;4.40;99.90;;;;;;5065644;28;20195;-78
2022/11/26 05:09:29;;;;;;;0.10;0.10;;;4.40;99.90;;;;;;5066880;28;20216;-78
2022/11/26 05:11:54;;;;;;;0.10;0.10;;;4.40;99.90;;;;;;5067606;28;20224;-79
2022/11/26 05:14:20;;;;;;;0.10;0.10;;;4.30;99.90;;;;;;5066385;28;20554;-79
2022/11/26 05:16:46;;;;;;;0.10;0.10;;;4.10;99.90;;;;;;5064798;28;20958;-79
2022/11/26 05:19:11;;;;;;;0.00;0.00;;;4.10;99.90;;;;;;5064108;28;20184;-79
2022/11/26 05:21:37;;;;;;;0.10;0.10;;;4.20;99.90;;;;;;5066437;28;20194;-79
2022/11/26 05:24:02;;;;;;;0.00;0.00;;;4.30;99.90;;;;;;5066907;28;20223;-79
2022/11/26 05:26:28;;;;;;;0.00;0.00;;;4.40;99.90;;;;;;5064975;28;20196;-79
2022/11/26 05:28:53;;;;;;;0.10;0.10;;;4.40;99.90;;;;;;5065674;28;20205;-79
2022/11/26 05:31:19;;;;;;;0.10;0.10;;;4.40;99.90;;;;;;5065976;28;20262;-79
2022/11/26 05:33:44;;;;;;;0.00;0.00;;;4.40;99.90;;;;;;5064553;28;20695;-79
2022/11/26 05:36:10;;;;;;;0.10;0.10;;;4.40;99.90;;;;;;5064232;28;20184;-79
2022/11/26 05:38:36;;;;;;;0.10;0.10;;;4.40;99.90;;;;;;5063409;28;20195;-79
2022/11/26 05:41:01;;;;;;;0.10;0.10;;;4.30;99.90;;;;;;5066486;28;20191;-79
2022/11/26 05:43:27;;;;;;;0.10;0.10;;;4.40;99.90;;;;;;5064017;28;20205;-79
2022/11/26 05:45:52;;;;;;;0.00;0.00;;;4.40;99.90;;;;;;5067489;28;20270;-79
2022/11/26 05:48:18;;;;;;;0.10;0.10;;;4.40;99.90;;;;;;5065820;28;20235;-80
2022/11/26 05:50:43;;;;;;;0.10;0.10;;;4.40;99.90;;;;;;5066300;28;20192;-79
2022/11/26 05:53:09;;;;;;;0.00;0.00;;;4.30;99.90;;;;;;5065273;28;20195;-79
2022/11/26 05:55:34;;;;;;;0.03;0.03;;;4.30;99.90;;;;;;5065999;28;20638;-80
2022/11/26 05:58:00;;;;;;;0.10;0.10;;;4.30;99.90;;;;;;5066816;28;20187;-79
2022/11/26 06:00:26;;;;;;;0.10;0.10;;;4.30;99.90;;;;;;5067067;28;20181;-80
2022/11/26 06:02:52;;;;;;;0.10;0.10;;;4.30;99.90;;;;;;5067177;28;20241;-80
2022/11/26 06:05:18;;;;;;;0.10;0.10;;;4.10;99.90;;;;;;5065804;28;20212;-79
2022/11/26 06:07:43;;;;;;;0.10;0.10;;;4.00;99.90;;;;;;5065863;28;20221;-79
2022/11/26 06:10:09;;;;;;;0.10;0.10;;;4.00;99.90;;;;;;5067711;28;20189;-80
2022/11/26 06:12:34;;;;;;;0.00;0.00;;;4.10;99.90;;;;;;5065764;28;20181;-79
2022/11/26 06:15:00;;;;;;;0.10;0.10;;;4.00;99.90;;;;;;5067193;28;20923;-79
2022/11/26 06:17:26;;;;;;;0.10;0.10;;;4.00;99.90;;;;;;5066945;28;20227;-79
2022/11/26 06:19:52;;;;;;;0.00;0.00;;;4.00;99.90;;;;;;5066565;28;20230;-79
2022/11/26 06:22:17;;;;;;;0.00;0.00;;;4.00;99.90;;;;;;5065339;28;20258;-80
2022/11/26 06:24:43;;;;;;;0.07;0.07;;;4.00;99.90;;;;;;5066265;28;20759;-80
2022/11/26 06:27:09;;;;;;;0.10;0.10;;;4.00;99.90;;;;;;5067334;28;20197;-79
2022/11/26 06:29:34;;;;;;;0.10;0.10;;;4.00;99.90;;;;;;5065200;28;20189;-79
2022/11/26 06:32:00;;;;;;;0.00;0.00;;;4.00;99.90;;;;;;5066305;28;20678;-79
2022/11/26 06:34:25;;;;;;;0.00;0.00;;;4.00;99.90;;;;;;5065129;28;20678;-79
2022/11/26 06:36:51;;;;;;;0.00;0.00;;;4.00;99.90;;;;;;5066240;28;20185;-81
2022/11/26 06:39:16;;;;;;;0.07;0.07;;;4.00;99.90;;;;;;5068672;28;20190;-79
2022/11/26 06:41:42;;;;;;;0.10;0.10;;;4.00;99.90;;;;;;5068926;28;20602;-79
2022/11/26 06:44:08;;;;;;;0.10;0.10;;;4.00;99.90;;;;;;5069406;28;20712;-79
2022/11/26 06:46:34;;;;;;;0.07;0.07;;;4.00;99.90;;;;;;5067186;28;20184;-79
2022/11/26 06:49:02;;;;;;;0.00;0.00;;;4.10;99.90;;;;;;5070434;28;20265;-79
2022/11/26 06:51:27;;;;;;;0.10;0.10;;;4.00;99.90;;;;;;5085992;28;20193;-80
2022/11/26 06:53:53;;;;;;;0.10;0.10;;;4.00;99.90;;;;;;5068453;28;20211;-79
2022/11/26 06:56:19;;;;;;;0.00;0.00;;;4.00;99.90;;;;;;5070834;28;20187;-80
2022/11/26 06:58:46;;;;;;;0.10;0.10;;;4.00;99.90;;;;;;5070907;28;20189;-80
2022/11/26 07:01:18;;;;;;;0.10;0.10;;;3.90;99.90;;;;;;5069450;28;20220;-79
2022/11/26 07:03:45;;;;;;;0.10;0.10;;;4.00;99.90;;;;;;5068589;28;20204;-79
2022/11/26 07:06:19;;;;;;;0.10;0.10;;;4.00;99.90;;;;;;5069214;28;20188;-79
2022/11/26 07:08:46;;;;;;;0.10;0.10;;;3.90;99.90;;;;;;5067676;28;20200;-80
2022/11/26 07:11:11;;;;;;;0.10;0.10;;;3.90;99.90;;;;;;5069081;28;20282;-79
2022/11/26 07:13:37;;;;;;;0.10;0.10;;;3.70;99.90;;;;;;5068648;28;20304;-79
2022/11/26 07:16:03;;;;;;;0.00;0.00;;;3.70;99.90;;;;;;5070454;28;20561;-79
2022/11/26 07:18:29;;;;;;;0.10;0.10;;;3.60;99.90;;;;;;5067187;28;20245;-80
2022/11/26 07:20:55;;;;;;;0.10;0.10;;;3.50;99.90;;;;;;5067512;28;20457;-80
2022/11/26 07:23:20;;;;;;;0.10;0.10;;;3.40;99.90;;;;;;5068313;28;20199;-79
2022/11/26 07:25:46;;;;;;;0.10;0.10;;;3.50;99.90;;;;;;5066980;28;20192;-80
2022/11/26 07:28:11;;;;;;;0.10;0.10;;;3.30;99.90;;;;;;5066177;28;20219;-80
2022/11/26 07:30:37;;;;;;;0.10;0.10;;;3.40;99.90;;;;;;5069402;28;20734;-81
2022/11/26 07:33:03;;;;;;;0.10;0.10;;;3.40;99.90;;;;;;5069923;28;20218;-80
2022/11/26 07:35:28;;;;;;;0.10;0.10;;;3.40;99.90;;;;;;5068824;28;20205;-80
2022/11/26 07:37:55;;;;;;;0.00;0.00;;;3.30;99.90;;;;;;5066272;28;20185;-80
2022/11/26 07:40:21;;;;;;;0.10;0.10;;;3.30;99.90;;;;;;5067937;28;20321;-80
2022/11/26 07:42:47;;;;;;;0.10;0.10;;;3.40;99.90;;;;;;5067028;28;20196;-79
2022/11/26 07:45:12;;;;;;;0.00;0.00;;;3.50;99.90;;;;;;5063101;28;20721;-80
2022/11/26 07:47:38;;;;;;;0.00;0.00;;;3.70;99.90;;;;;;5067364;28;20221;-80
2022/11/26 07:50:04;;;;;;;0.00;0.00;;;4.00;99.90;;;;;;5068814;28;20191;-80
2022/11/26 07:52:30;;;;;;;0.10;0.10;;;4.10;99.90;;;;;;5066846;28;20239;-79
2022/11/26 07:54:55;;;;;;;0.10;0.10;;;4.10;99.90;;;;;;5067999;28;20218;-79
2022/11/26 07:57:21;;;;;;;0.10;0.10;;;4.00;99.90;;;;;;5069302;28;20182;-80
2022/11/26 07:59:47;;;;;;;0.10;0.10;;;4.10;99.90;;;;;;5070201;28;20192;-80
2022/11/26 08:02:13;;;;;;;0.10;0.10;;;4.30;99.90;;;;;;5068807;28;20192;-79
2022/11/26 08:04:39;;;;;;;0.00;0.00;;;4.40;99.90;;;;;;5067957;28;20205;-80
2022/11/26 08:07:05;;;;;;;1.33;1.23;;;4.30;99.90;;;;;;5067779;28;20268;-80
2022/11/26 08:09:30;;;;;;;0.10;0.10;;;4.20;99.90;;;;;;5066919;28;20711;-80
2022/11/26 08:11:56;;;;;;;0.10;0.10;;;4.20;99.90;;;;;;5064766;28;20266;-80
2022/11/26 08:14:22;;;;;;;0.10;0.10;;;4.40;99.90;;;;;;5066225;28;20229;-79
2022/11/26 08:16:47;;;;;;;0.10;0.10;;;4.40;99.90;;;;;;5066124;28;20185;-79
2022/11/26 08:19:13;;;;;;;0.10;0.10;;;4.40;99.90;;;;;;5064920;28;20196;-80
2022/11/26 08:21:39;;;;;;;0.10;0.10;;;4.50;99.90;;;;;;5062613;28;20192;-80
2022/11/26 08:24:06;;;;;;;0.10;0.10;;;4.60;99.90;;;;;;5067588;28;20214;-79
2022/11/26 08:26:32;;;;;;;0.10;0.10;;;4.80;99.90;;;;;;5059872;28;20192;-80
2022/11/26 08:28:58;;;;;;;0.00;0.00;;;4.90;99.90;;;;;;5062112;28;20266;-80
2022/11/26 08:31:26;;;;;;;0.10;0.10;;;5.10;99.90;;;;;;5066986;28;20185;-80
2022/11/26 08:33:54;;;;;;;0.00;0.00;;;5.40;99.90;;;;;;5066308;28;20204;-80
2022/11/26 08:36:20;;;;;;;0.10;0.10;;;5.70;99.90;;;;;;5063564;28;20263;-80
2022/11/26 08:38:46;;;;;;;0.10;0.10;;;6.00;99.90;;;;;;5065602;28;20265;-81
2022/11/26 08:41:12;;;;;;;0.10;0.10;;;6.10;99.90;;;;;;5067265;28;20193;-79
2022/11/26 08:43:38;;;;;;;0.10;0.10;;;6.20;99.90;;;;;;5061730;28;20299;-80
2022/11/26 08:46:05;;;;;;;0.10;0.10;;;6.40;99.90;;;;;;5063992;28;20197;-79
2022/11/26 08:48:31;;;;;;;0.10;0.10;;;6.60;99.90;;;;;;5062754;28;20673;-79
2022/11/26 08:51:02;;;;;;;0.00;0.00;;;6.60;99.90;;;;;;5065888;28;20191;-79
2022/11/26 08:53:29;;;;;;;0.10;0.10;;;6.70;99.90;;;;;;5064779;28;20234;-79
2022/11/26 08:56:07;;;;;;;0.00;0.00;;;6.80;99.90;;;;;;5064516;28;20190;-79
2022/11/26 08:58:38;;;;;;;0.10;0.10;;;6.70;99.90;;;;;;5065456;28;20193;-79
2022/11/26 09:01:16;;;;;;;0.10;0.10;;;6.70;99.90;;;;;;5061305;28;20275;-79
2022/11/26 09:03:42;;;;;;;0.10;0.10;;;6.60;99.90;;;;;;5065787;28;20283;-79
2022/11/26 09:06:08;;;;;;;0.10;0.10;;;6.50;99.90;;;;;;5063473;28;20193;-79
2022/11/26 09:09:11;;;;;;;0.10;0.10;;;6.40;99.90;;;;;;5063812;28;20254;-79
2022/11/26 09:11:22;;;;;;;0.10;0.10;;;6.40;99.90;;;;;;5066433;28;20197;-81
2022/11/26 09:13:47;;;;;;;0.10;0.10;;;6.30;99.90;;;;;;5065971;28;20220;-81
2022/11/26 09:16:13;;;;;;;0.10;0.10;;;6.30;99.90;;;;;;5066158;28;20568;-81
2022/11/26 09:18:38;;;;;;;0.10;0.10;;;6.20;99.90;;;;;;5062799;28;20868;-81
2022/11/26 09:21:04;;;;;;;0.10;0.10;;;6.20;99.90;;;;;;5059514;28;20693;-81
2022/11/26 09:23:30;;;;;;;0.00;0.00;;;6.00;99.90;;;;;;5080285;28;20290;-79
2022/11/26 09:25:55;;;;;;;0.10;0.10;;;5.90;99.90;;;;;;5061361;28;20199;-79
2022/11/26 09:28:21;;;;;;;0.10;0.10;;;5.90;99.90;;;;;;5061429;28;20266;-80
2022/11/26 09:30:46;;;;;;;0.10;0.10;;;5.80;99.90;;;;;;5065777;28;20535;-81
2022/11/26 09:33:12;;;;;;;0.10;0.10;;;5.90;99.90;;;;;;5065812;28;20985;-82
2022/11/26 09:35:37;;;;;;;0.10;0.10;;;6.00;99.90;;;;;;5067954;28;20649;-82
2022/11/26 09:38:03;;;;;;;0.00;0.00;;;6.00;99.90;;;;;;5066306;28;20192;-80
2022/11/26 09:40:59;;;;;;;0.10;0.10;;;6.10;99.90;;;;;;5065286;28;20201;-80
2022/11/26 09:43:33;;;;;;;0.10;0.10;;;6.30;99.90;;;;;;5055112;28;20192;-79
2022/11/26 09:46:00;;;;;;;0.10;0.10;;;6.50;99.90;;;;;;5063311;28;20201;-80
2022/11/26 09:48:29;;;;;;;0.10;0.10;;;6.60;99.90;;;;;;5062131;28;20216;-79
2022/11/26 09:51:02;;;;;;;0.10;0.10;;;6.80;99.90;;;;;;5063854;28;20223;-79
2022/11/26 09:53:35;;;;;;;0.03;0.03;;;7.00;99.90;;;;;;5060592;28;20243;-80
2022/11/26 09:56:01;;;;;;;0.10;0.10;;;7.10;99.90;;;;;;5059558;28;20185;-80
2022/11/26 09:58:35;;;;;;;0.10;0.10;;;7.30;99.90;;;;;;5062942;28;20197;-80
2022/11/26 10:01:05;;;;;;;0.10;0.10;;;7.50;99.90;;;;;;5063524;28;20185;-80
2022/11/26 10:03:36;;;;;;;0.10;0.10;;;7.60;99.90;;;;;;5062487;28;20213;-80
2022/11/26 10:06:24;;;;;;;0.10;0.10;;;7.60;99.90;;;;;;5063164;28;20831;-80
2022/11/26 10:08:53;;;;;;;0.10;0.10;;;7.60;99.90;;;;;;5061674;28;20214;-80
2022/11/26 10:11:35;;;;;;;0.10;0.10;;;7.40;99.90;;;;;;5061022;28;20311;-80
2022/11/26 10:14:31;;;;;;;0.10;0.10;;;7.10;99.90;;;;;;5069608;28;21237;-79
2022/11/26 10:17:06;;;;;;;0.10;0.10;;;7.10;99.90;;;;;;5067415;28;20193;-80
2022/11/26 10:19:40;;;;;;;0.10;0.10;;;7.00;99.90;;;;;;5070297;28;20198;-79
2022/11/26 10:22:44;;;;;;;0.00;0.00;;;7.00;99.90;;;;;;5071478;28;20189;-80
2022/11/26 10:25:16;;;;;;;0.10;0.10;;;7.00;99.90;;;;;;4992462;28;20262;-80
2022/11/26 10:27:42;;;;;;;0.10;0.10;;;7.30;99.90;;;;;;5070710;28;20224;-80
2022/11/26 10:30:25;;;;;;;0.10;0.10;;;7.30;99.90;;;;;;5074026;28;20216;-79
2022/11/26 10:32:53;;;;;;;0.10;0.10;;;7.20;99.90;;;;;;5072061;28;20249;-79
2022/11/26 10:35:27;;;;;;;0.10;0.10;;;7.30;99.90;;;;;;5070624;28;20620;-78
2022/11/26 10:37:55;;;;;;;0.00;0.00;;;7.30;99.90;;;;;;5070685;28;20195;-79
2022/11/26 10:40:29;;;;;;;0.10;0.10;;;7.10;99.90;;;;;;5071474;28;20676;-80
2022/11/26 10:43:07;;;;;;;0.10;0.10;;;7.10;99.90;;;;;;5071454;28;20176;-79
2022/11/26 10:45:44;;;;;;;0.10;0.10;;;7.00;99.90;;;;;;5071388;28;20279;-80
2022/11/26 10:48:28;;;;;;;0.10;0.10;;;7.00;99.90;;;;;;5068767;28;20231;-80
2022/11/26 10:51:05;;;;;;;0.10;0.10;;;7.00;99.90;;;;;;5071391;28;20184;-80
2022/11/26 10:53:49;;;;;;;0.10;0.10;;;6.90;99.90;;;;;;5069213;28;20609;-80
2022/11/26 10:56:21;;;;;;;0.10;0.10;;;6.80;99.90;;;;;;5067971;28;20261;-79
2022/11/26 10:58:49;;;;;;;0.10;0.10;;;6.80;99.90;;;;;;5067272;28;20194;-80
2022/11/26 11:01:15;;;;;;;0.10;0.10;;;6.60;99.90;;;;;;5070621;28;20267;-79
2022/11/26 11:03:57;;;;;;;0.10;0.10;;;6.70;99.90;;;;;;5068402;28;20295;-79
2022/11/26 11:06:42;;;;;;;0.10;0.10;;;6.70;99.90;;;;;;5070654;28;20220;-79
2022/11/26 11:09:33;;;;;;;0.10;0.10;;;6.80;99.90;;;;;;5064262;28;20205;-78
2022/11/26 11:12:17;;;;;;;0.00;0.00;;;6.90;99.90;;;;;;5067498;28;20243;-79
2022/11/26 11:14:44;;;;;;;0.10;0.10;;;7.00;99.90;;;;;;5068653;28;20223;-78
2022/11/26 11:17:30;;;;;;;0.00;0.00;;;7.10;99.90;;;;;;5068909;28;20195;-79
2022/11/26 11:19:58;;;;;;;0.10;0.10;;;7.20;99.90;;;;;;5068234;28;20194;-78
2022/11/26 11:22:25;;;;;;;0.10;0.10;;;7.20;99.90;;;;;;5067385;28;20189;-78
2022/11/26 11:24:52;;;;;;;0.10;0.10;;;7.30;99.90;;;;;;5063766;28;20209;-78
2022/11/26 11:27:38;;;;;;;0.10;0.10;;;7.40;99.90;;;;;;5065658;28;20189;-79
2022/11/26 11:30:04;;;;;;;0.10;0.10;;;7.40;99.90;;;;;;5083216;28;20242;-78
2022/11/26 11:32:34;;;;;;;0.00;0.00;;;7.50;99.90;;;;;;5065448;28;20890;-79
2022/11/26 11:35:18;;;;;;;0.10;0.10;;;7.60;99.90;;;;;;5066869;28;20209;-79
2022/11/26 11:37:53;;;;;;;0.10;0.10;;;7.60;99.90;;;;;;5064872;28;20212;-80
2022/11/26 11:40:24;;;;;;;0.10;0.10;;;7.70;99.90;;;;;;5061455;28;20236;-80
2022/11/26 11:42:58;;;;;;;0.10;0.10;;;7.70;99.90;;;;;;5064373;28;20546;-79
2022/11/26 11:45:38;;;;;;;0.10;0.10;;;7.60;99.90;;;;;;5063997;28;20201;-79
2022/11/26 11:48:42;;;;;;;0.10;0.10;;;7.70;99.90;;;;;;5063481;28;20233;-79
2022/11/26 11:51:40;;;;;;;0.10;0.10;;;7.60;99.90;;;;;;5061297;28;20247;-79
2022/11/26 11:54:32;;;;;;;0.10;0.10;;;7.50;99.90;;;;;;5081008;28;20215;-79
2022/11/26 11:57:01;;;;;;;0.10;0.10;;;7.50;99.90;;;;;;5064719;28;20186;-79
2022/11/26 12:00:07;;;;;;;0.10;0.10;;;7.50;99.90;;;;;;5064860;28;20201;-79
2022/11/26 12:03:01;;;;;;;0.00;0.00;;;7.60;99.90;;;;;;5064079;28;20289;-79
2022/11/26 12:05:34;;;;;;;0.10;0.10;;;7.60;99.90;;;;;;5079838;28;20694;-79
2022/11/26 12:08:16;;;;;;;0.10;0.10;;;7.60;99.90;;;;;;5076191;28;20205;-79
2022/11/26 12:11:16;;;;;;;0.10;0.10;;;7.70;99.90;;;;;;5096603;28;20318;-80
2022/11/26 12:13:48;;;;;;;0.10;0.10;;;7.80;99.90;;;;;;5076931;28;20240;-79
2022/11/26 12:16:17;;;;;;;0.10;0.10;;;7.90;99.90;;;;;;5079033;28;20205;-79
2022/11/26 12:18:54;;;;;;;0.10;0.10;;;7.90;99.90;;;;;;5074768;28;20278;-79
2022/11/26 12:21:38;;;;;;;0.10;0.10;;;8.00;99.90;;;;;;5065279;28;20544;-79
2022/11/26 12:24:12;;;;;;;0.10;0.10;;;8.10;99.90;;;;;;5066779;28;20213;-79
2022/11/26 12:26:46;;;;;;;0.10;0.10;;;8.20;99.90;;;;;;5082614;28;20196;-78
2022/11/26 12:29:33;;;;;;;0.10;0.10;;;8.20;99.90;;;;;;5067058;28;20216;-79
2022/11/26 12:32:13;;;;;;;0.10;0.10;;;8.10;99.90;;;;;;5063770;28;20192;-78
2022/11/26 12:34:45;;;;;;;0.10;0.10;;;8.10;99.90;;;;;;5063331;28;20221;-78
2022/11/26 12:37:18;;;;;;;0.10;0.10;;;8.00;99.90;;;;;;5065267;28;20304;-79
2022/11/26 12:39:44;;;;;;;0.10;0.10;;;8.00;99.90;;;;;;5064506;28;20187;-79
2022/11/26 12:42:18;;;;;;;0.10;0.10;;;8.10;99.90;;;;;;5065344;28;20202;-79
2022/11/26 12:44:49;;;;;;;0.00;0.00;;;8.20;99.90;;;;;;5063993;28;20232;-79
2022/11/26 12:47:27;;;;;;;0.10;0.10;;;8.20;99.90;;;;;;5064975;28;20304;-79
2022/11/26 12:50:19;;;;;;;0.10;0.10;;;8.20;99.90;;;;;;5081179;28;20185;-79
2022/11/26 12:53:14;;;;;;;0.10;0.10;;;8.20;99.90;;;;;;5064568;28;20712;-78
2022/11/26 12:55:52;;;;;;;0.10;0.10;;;8.20;99.90;;;;;;5063510;28;20206;-79
2022/11/26 12:58:26;;;;;;;0.10;0.10;;;8.10;99.90;;;;;;5064557;28;20191;-79
2022/11/26 13:00:53;;;;;;;0.07;0.07;;;8.20;99.90;;;;;;5081046;28;20186;-79
2022/11/26 13:03:28;;;;;;;0.10;0.10;;;8.30;99.90;;;;;;5064346;28;20942;-78
2022/11/26 13:06:24;;;;;;;0.10;0.10;;;8.30;99.90;;;;;;5065669;28;20191;-79
2022/11/26 13:09:12;;;;;;;0.00;0.00;;;8.30;99.90;;;;;;5061569;28;20269;-79
2022/11/26 13:12:11;;;;;;;0.10;0.10;;;8.40;99.90;;;;;;5079821;28;20183;-80